sensor_id;sensor_type;location;lat;lon;timestamp;temperature;humidity
23124;DHT22;11731;48.592;8.858;2022-09-01T00:01:39;18.30;99.90
23124;DHT22;11731;48.592;8.858;2022-09-01T00:04:09;18.50;99.90
23124;DHT22;11731;48.592;8.858;2022-09-01T00:06:38;18.50;99.90
23124;DHT22;11731;48.592;8.858;2022-09-01T00:09:08;18.50;99.90
23124;DHT22;11731;48.592;8.858;2022-09-01T00:11:35;18.40;99.90
23124;DHT22;11731;48.592;8.858;2022-09-01T00:14:04;18.40;99.90
23124;DHT22;11731;48.592;8.858;2022-09-01T00:16:31;18.20;99.90
23124;DHT22;11731;48.592;8.858;2022-09-01T00:19:00;18.10;99.90
23124;DHT22;11731;48.592;8.858;2022-09-01T00:21:31;18.10;99.90
23124;DHT22;11731;48.592;8.858;2022-09-01T00:23:59;18.00;99.90
23124;DHT22;11731;48.592;8.858;2022-09-01T00:26:27;17.90;99.90
23124;DHT22;11731;48.592;8.858;2022-09-01T00:28:54;17.80;99.90
23124;DHT22;11731;48.592;8.858;2022-09-01T00:31:21;17.80;99.90
23124;DHT22;11731;48.592;8.858;2022-09-01T00:33:49;17.90;99.90
23124;DHT22;11731;48.592;8.858;2022-09-01T00:36:18;17.80;99.90
23124;DHT22;11731;48.592;8.858;2022-09-01T00:38:46;17.90;99.90
23124;DHT22;11731;48.592;8.858;2022-09-01T00:41:14;17.80;99.90
23124;DHT22;11731;48.592;8.858;2022-09-01T00:43:46;17.70;99.90
23124;DHT22;11731;48.592;8.858;2022-09-01T00:46:15;17.80;99.90
23124;DHT22;11731;48.592;8.858;2022-09-01T00:48:42;17.80;99.90
23124;DHT22;11731;48.592;8.858;2022-09-01T00:51:10;17.70;99.90
23124;DHT22;11731;48.592;8.858;2022-09-01T00:53:40;17.60;99.90
23124;DHT22;11731;48.592;8.858;2022-09-01T00:56:08;17.60;99.90
23124;DHT22;11731;48.592;8.858;2022-09-01T00:58:36;17.50;99.90
23124;DHT22;11731;48.592;8.858;2022-09-01T01:01:05;17.40;99.90
23124;DHT22;11731;48.592;8.858;2022-09-01T01:03:32;17.50;99.90
23124;DHT22;11731;48.592;8.858;2022-09-01T01:06:02;17.40;99.90
23124;DHT22;11731;48.592;8.858;2022-09-01T01:08:35;17.30;99.90
23124;DHT22;11731;48.592;8.858;2022-09-01T01:11:06;17.40;99.90
23124;DHT22;11731;48.592;8.858;2022-09-01T01:13:46;17.50;99.90
23124;DHT22;11731;48.592;8.858;2022-09-01T01:16:13;17.60;99.90
23124;DHT22;11731;48.592;8.858;2022-09-01T01:18:40;17.60;99.90
23124;DHT22;11731;48.592;8.858;2022-09-01T01:21:13;17.40;99.90
23124;DHT22;11731;48.592;8.858;2022-09-01T01:24:05;17.30;99.90
23124;DHT22;11731;48.592;8.858;2022-09-01T01:26:36;17.00;99.90
23124;DHT22;11731;48.592;8.858;2022-09-01T01:29:04;16.50;99.90
23124;DHT22;11731;48.592;8.858;2022-09-01T01:31:34;16.30;99.90
23124;DHT22;11731;48.592;8.858;2022-09-01T01:34:03;16.40;99.90
23124;DHT22;11731;48.592;8.858;2022-09-01T01:36:36;16.20;99.90
23124;DHT22;11731;48.592;8.858;2022-09-01T01:39:07;16.30;99.90
23124;DHT22;11731;48.592;8.858;2022-09-01T01:41:36;16.60;99.90
23124;DHT22;11731;48.592;8.858;2022-09-01T01:44:05;16.90;99.90
23124;DHT22;11731;48.592;8.858;2022-09-01T01:46:34;16.80;99.90
23124;DHT22;11731;48.592;8.858;2022-09-01T01:49:01;16.80;99.90
23124;DHT22;11731;48.592;8.858;2022-09-01T01:51:29;16.60;99.90
23124;DHT22;11731;48.592;8.858;2022-09-01T01:53:57;16.60;99.90
23124;DHT22;11731;48.592;8.858;2022-09-01T01:56:27;16.30;99.90
23124;DHT22;11731;48.592;8.858;2022-09-01T01:58:55;16.50;99.90
23124;DHT22;11731;48.592;8.858;2022-09-01T02:01:24;16.60;99.90
23124;DHT22;11731;48.592;8.858;2022-09-01T02:03:54;16.50;99.90
23124;DHT22;11731;48.592;8.858;2022-09-01T02:06:23;16.40;99.90
23124;DHT22;11731;48.592;8.858;2022-09-01T02:08:52;16.50;99.90
23124;DHT22;11731;48.592;8.858;2022-09-01T02:11:21;16.80;99.90
23124;DHT22;11731;48.592;8.858;2022-09-01T02:13:48;16.90;99.90
23124;DHT22;11731;48.592;8.858;2022-09-01T02:16:24;17.00;99.90
23124;DHT22;11731;48.592;8.858;2022-09-01T02:18:51;17.00;99.90
23124;DHT22;11731;48.592;8.858;2022-09-01T02:21:20;16.90;99.90
23124;DHT22;11731;48.592;8.858;2022-09-01T02:23:50;16.90;99.90
23124;DHT22;11731;48.592;8.858;2022-09-01T02:26:27;16.80;99.90
23124;DHT22;11731;48.592;8.858;2022-09-01T02:28:56;16.50;99.90
23124;DHT22;11731;48.592;8.858;2022-09-01T02:31:27;16.30;99.90
23124;DHT22;11731;48.592;8.858;2022-09-01T02:33:56;16.60;99.90
23124;DHT22;11731;48.592;8.858;2022-09-01T02:36:23;16.70;99.90
23124;DHT22;11731;48.592;8.858;2022-09-01T02:38:51;16.10;99.90
23124;DHT22;11731;48.592;8.858;2022-09-01T02:41:19;16.40;99.90
23124;DHT22;11731;48.592;8.858;2022-09-01T02:43:51;16.90;99.90
23124;DHT22;11731;48.592;8.858;2022-09-01T02:46:18;17.00;99.90
23124;DHT22;11731;48.592;8.858;2022-09-01T02:48:49;17.20;99.90
23124;DHT22;11731;48.592;8.858;2022-09-01T02:51:18;17.40;99.90
23124;DHT22;11731;48.592;8.858;2022-09-01T02:53:47;17.50;99.90
23124;DHT22;11731;48.592;8.858;2022-09-01T02:56:19;17.70;99.90
23124;DHT22;11731;48.592;8.858;2022-09-01T02:58:48;17.80;99.90
23124;DHT22;11731;48.592;8.858;2022-09-01T03:01:19;17.80;99.90
23124;DHT22;11731;48.592;8.858;2022-09-01T03:03:49;17.60;99.90
23124;DHT22;11731;48.592;8.858;2022-09-01T03:06:16;17.70;99.90
23124;DHT22;11731;48.592;8.858;2022-09-01T03:08:49;17.40;99.90
23124;DHT22;11731;48.592;8.858;2022-09-01T03:11:16;17.40;99.90
23124;DHT22;11731;48.592;8.858;2022-09-01T03:13:43;17.30;99.90
23124;DHT22;11731;48.592;8.858;2022-09-01T03:16:13;17.20;99.90
23124;DHT22;11731;48.592;8.858;2022-09-01T03:18:40;16.90;99.90
23124;DHT22;11731;48.592;8.858;2022-09-01T03:21:10;17.10;99.90
23124;DHT22;11731;48.592;8.858;2022-09-01T03:23:42;17.20;99.90
23124;DHT22;11731;48.592;8.858;2022-09-01T03:26:09;16.90;99.90
23124;DHT22;11731;48.592;8.858;2022-09-01T03:28:36;17.10;99.90
23124;DHT22;11731;48.592;8.858;2022-09-01T03:31:03;17.00;99.90
23124;DHT22;11731;48.592;8.858;2022-09-01T03:33:30;17.00;99.90
23124;DHT22;11731;48.592;8.858;2022-09-01T03:35:59;16.90;99.90
23124;DHT22;11731;48.592;8.858;2022-09-01T03:38:27;16.70;99.90
23124;DHT22;11731;48.592;8.858;2022-09-01T03:40:58;16.60;99.90
23124;DHT22;11731;48.592;8.858;2022-09-01T03:43:26;16.20;99.90
23124;DHT22;11731;48.592;8.858;2022-09-01T03:45:54;16.30;99.90
23124;DHT22;11731;48.592;8.858;2022-09-01T03:48:22;16.60;99.90
23124;DHT22;11731;48.592;8.858;2022-09-01T03:50:52;16.70;99.90
23124;DHT22;11731;48.592;8.858;2022-09-01T03:53:21;17.00;99.90
23124;DHT22;11731;48.592;8.858;2022-09-01T03:55:53;17.20;99.90
23124;DHT22;11731;48.592;8.858;2022-09-01T03:58:23;17.40;99.90
23124;DHT22;11731;48.592;8.858;2022-09-01T04:00:53;17.60;99.90
23124;DHT22;11731;48.592;8.858;2022-09-01T04:03:22;17.60;99.90
23124;DHT22;11731;48.592;8.858;2022-09-01T04:05:50;17.30;99.90
23124;DHT22;11731;48.592;8.858;2022-09-01T04:08:18;17.40;99.90
23124;DHT22;11731;48.592;8.858;2022-09-01T04:10:46;17.60;99.90
23124;DHT22;11731;48.592;8.858;2022-09-01T04:13:17;17.70;99.90
23124;DHT22;11731;48.592;8.858;2022-09-01T04:15:44;17.50;99.90
23124;DHT22;11731;48.592;8.858;2022-09-01T04:18:12;17.00;99.90
23124;DHT22;11731;48.592;8.858;2022-09-01T04:20:47;17.20;99.90
23124;DHT22;11731;48.592;8.858;2022-09-01T04:23:16;17.20;99.90
23124;DHT22;11731;48.592;8.858;2022-09-01T04:25:47;16.80;99.90
23124;DHT22;11731;48.592;8.858;2022-09-01T04:28:17;16.80;99.90
23124;DHT22;11731;48.592;8.858;2022-09-01T04:30:50;17.00;99.90
23124;DHT22;11731;48.592;8.858;2022-09-01T04:33:20;17.40;99.90
23124;DHT22;11731;48.592;8.858;2022-09-01T04:35:49;17.30;99.90
23124;DHT22;11731;48.592;8.858;2022-09-01T04:38:20;17.30;99.90
23124;DHT22;11731;48.592;8.858;2022-09-01T04:40:47;17.30;99.90
23124;DHT22;11731;48.592;8.858;2022-09-01T04:43:16;16.70;99.90
23124;DHT22;11731;48.592;8.858;2022-09-01T04:45:45;16.50;99.90
23124;DHT22;11731;48.592;8.858;2022-09-01T04:48:14;16.60;99.90
23124;DHT22;11731;48.592;8.858;2022-09-01T04:50:42;16.90;99.90
23124;DHT22;11731;48.592;8.858;2022-09-01T04:53:14;17.10;99.90
23124;DHT22;11731;48.592;8.858;2022-09-01T04:55:42;17.00;99.90
23124;DHT22;11731;48.592;8.858;2022-09-01T04:58:11;16.70;99.90
23124;DHT22;11731;48.592;8.858;2022-09-01T05:00:44;16.20;99.90
23124;DHT22;11731;48.592;8.858;2022-09-01T05:03:13;16.40;99.90
23124;DHT22;11731;48.592;8.858;2022-09-01T05:05:46;16.50;99.90
23124;DHT22;11731;48.592;8.858;2022-09-01T05:08:16;16.50;99.90
23124;DHT22;11731;48.592;8.858;2022-09-01T05:10:46;16.70;99.90
23124;DHT22;11731;48.592;8.858;2022-09-01T05:13:18;16.80;99.90
23124;DHT22;11731;48.592;8.858;2022-09-01T05:16:00;16.80;99.90
23124;DHT22;11731;48.592;8.858;2022-09-01T05:18:27;16.80;99.90
23124;DHT22;11731;48.592;8.858;2022-09-01T05:20:55;16.50;99.90
23124;DHT22;11731;48.592;8.858;2022-09-01T05:23:22;17.00;99.90
23124;DHT22;11731;48.592;8.858;2022-09-01T05:25:51;17.30;99.90
23124;DHT22;11731;48.592;8.858;2022-09-01T05:28:19;17.60;99.90
23124;DHT22;11731;48.592;8.858;2022-09-01T05:30:50;17.50;99.90
23124;DHT22;11731;48.592;8.858;2022-09-01T05:33:19;17.50;99.90
23124;DHT22;11731;48.592;8.858;2022-09-01T05:35:52;17.50;99.90
23124;DHT22;11731;48.592;8.858;2022-09-01T05:38:20;17.70;99.90
23124;DHT22;11731;48.592;8.858;2022-09-01T05:40:54;17.80;99.90
23124;DHT22;11731;48.592;8.858;2022-09-01T05:43:22;17.50;99.90
23124;DHT22;11731;48.592;8.858;2022-09-01T05:45:52;17.20;99.90
23124;DHT22;11731;48.592;8.858;2022-09-01T05:48:20;17.30;99.90
23124;DHT22;11731;48.592;8.858;2022-09-01T05:50:48;17.40;99.90
23124;DHT22;11731;48.592;8.858;2022-09-01T05:53:16;17.50;99.90
23124;DHT22;11731;48.592;8.858;2022-09-01T05:55:50;17.70;99.90
23124;DHT22;11731;48.592;8.858;2022-09-01T05:58:23;18.00;99.90
23124;DHT22;11731;48.592;8.858;2022-09-01T06:00:52;17.80;99.90
23124;DHT22;11731;48.592;8.858;2022-09-01T06:03:21;18.00;99.90
23124;DHT22;11731;48.592;8.858;2022-09-01T06:05:49;17.90;99.90
23124;DHT22;11731;48.592;8.858;2022-09-01T06:08:19;17.90;99.90
23124;DHT22;11731;48.592;8.858;2022-09-01T06:10:46;17.90;99.90
23124;DHT22;11731;48.592;8.858;2022-09-01T06:13:15;17.60;99.90
23124;DHT22;11731;48.592;8.858;2022-09-01T06:15:46;17.70;99.90
23124;DHT22;11731;48.592;8.858;2022-09-01T06:18:15;17.70;99.90
23124;DHT22;11731;48.592;8.858;2022-09-01T06:20:45;17.30;99.90
23124;DHT22;11731;48.592;8.858;2022-09-01T06:23:13;17.10;99.90
23124;DHT22;11731;48.592;8.858;2022-09-01T06:25:42;17.40;99.90
23124;DHT22;11731;48.592;8.858;2022-09-01T06:28:11;17.50;99.90
23124;DHT22;11731;48.592;8.858;2022-09-01T06:30:39;17.60;99.90
23124;DHT22;11731;48.592;8.858;2022-09-01T06:33:07;17.50;99.90
23124;DHT22;11731;48.592;8.858;2022-09-01T06:35:37;17.10;99.90
23124;DHT22;11731;48.592;8.858;2022-09-01T06:38:05;17.30;99.90
23124;DHT22;11731;48.592;8.858;2022-09-01T06:40:33;17.80;99.90
23124;DHT22;11731;48.592;8.858;2022-09-01T06:43:01;18.20;99.90
23124;DHT22;11731;48.592;8.858;2022-09-01T06:45:33;18.50;99.90
23124;DHT22;11731;48.592;8.858;2022-09-01T06:48:02;18.70;99.90
23124;DHT22;11731;48.592;8.858;2022-09-01T06:50:30;18.90;99.90
23124;DHT22;11731;48.592;8.858;2022-09-01T06:52:58;18.80;99.90
23124;DHT22;11731;48.592;8.858;2022-09-01T06:55:35;18.80;99.90
23124;DHT22;11731;48.592;8.858;2022-09-01T06:58:03;18.90;99.90
23124;DHT22;11731;48.592;8.858;2022-09-01T07:00:32;18.30;99.90
23124;DHT22;11731;48.592;8.858;2022-09-01T07:03:06;18.30;99.90
23124;DHT22;11731;48.592;8.858;2022-09-01T07:05:34;18.20;99.90
23124;DHT22;11731;48.592;8.858;2022-09-01T07:08:05;18.40;99.90
23124;DHT22;11731;48.592;8.858;2022-09-01T07:10:39;18.80;99.90
23124;DHT22;11731;48.592;8.858;2022-09-01T07:13:11;19.10;99.90
23124;DHT22;11731;48.592;8.858;2022-09-01T07:15:45;18.80;99.90
23124;DHT22;11731;48.592;8.858;2022-09-01T07:18:14;19.10;99.90
23124;DHT22;11731;48.592;8.858;2022-09-01T07:20:42;19.40;99.90
23124;DHT22;11731;48.592;8.858;2022-09-01T07:23:14;19.60;99.90
23124;DHT22;11731;48.592;8.858;2022-09-01T07:25:42;19.90;99.90
23124;DHT22;11731;48.592;8.858;2022-09-01T07:28:10;19.80;99.90
23124;DHT22;11731;48.592;8.858;2022-09-01T07:30:40;19.50;99.90
23124;DHT22;11731;48.592;8.858;2022-09-01T07:33:08;19.40;99.90
23124;DHT22;11731;48.592;8.858;2022-09-01T07:35:37;19.70;99.90
23124;DHT22;11731;48.592;8.858;2022-09-01T07:38:05;19.90;99.90
23124;DHT22;11731;48.592;8.858;2022-09-01T07:40:34;20.30;99.90
23124;DHT22;11731;48.592;8.858;2022-09-01T07:43:04;20.10;99.90
23124;DHT22;11731;48.592;8.858;2022-09-01T07:45:35;20.10;99.90
23124;DHT22;11731;48.592;8.858;2022-09-01T07:48:05;20.40;99.90
23124;DHT22;11731;48.592;8.858;2022-09-01T07:50:34;20.70;99.90
23124;DHT22;11731;48.592;8.858;2022-09-01T07:53:01;20.90;99.90
23124;DHT22;11731;48.592;8.858;2022-09-01T07:55:29;21.10;99.90
23124;DHT22;11731;48.592;8.858;2022-09-01T07:57:57;20.70;99.90
23124;DHT22;11731;48.592;8.858;2022-09-01T08:00:25;20.60;99.90
23124;DHT22;11731;48.592;8.858;2022-09-01T08:02:53;20.80;99.90
23124;DHT22;11731;48.592;8.858;2022-09-01T08:05:20;20.80;99.90
23124;DHT22;11731;48.592;8.858;2022-09-01T08:07:51;20.20;99.90
23124;DHT22;11731;48.592;8.858;2022-09-01T08:10:19;19.80;99.90
23124;DHT22;11731;48.592;8.858;2022-09-01T08:12:46;20.00;99.90
23124;DHT22;11731;48.592;8.858;2022-09-01T08:15:15;20.30;99.90
23124;DHT22;11731;48.592;8.858;2022-09-01T08:17:42;20.40;99.90
23124;DHT22;11731;48.592;8.858;2022-09-01T08:20:10;20.30;99.90
23124;DHT22;11731;48.592;8.858;2022-09-01T08:22:37;20.30;99.90
23124;DHT22;11731;48.592;8.858;2022-09-01T08:25:05;20.40;99.90
23124;DHT22;11731;48.592;8.858;2022-09-01T08:27:32;20.10;99.90
23124;DHT22;11731;48.592;8.858;2022-09-01T08:30:01;20.50;99.90
23124;DHT22;11731;48.592;8.858;2022-09-01T08:32:30;20.90;99.90
23124;DHT22;11731;48.592;8.858;2022-09-01T08:34:57;20.70;99.90
23124;DHT22;11731;48.592;8.858;2022-09-01T08:37:24;20.50;99.90
23124;DHT22;11731;48.592;8.858;2022-09-01T08:39:51;20.60;99.90
23124;DHT22;11731;48.592;8.858;2022-09-01T08:42:25;21.30;99.90
23124;DHT22;11731;48.592;8.858;2022-09-01T08:45:01;21.30;99.90
23124;DHT22;11731;48.592;8.858;2022-09-01T08:47:30;21.50;99.90
23124;DHT22;11731;48.592;8.858;2022-09-01T08:49:59;21.80;99.90
23124;DHT22;11731;48.592;8.858;2022-09-01T08:52:30;21.80;99.90
23124;DHT22;11731;48.592;8.858;2022-09-01T08:55:00;22.00;99.90
23124;DHT22;11731;48.592;8.858;2022-09-01T08:57:32;22.00;99.90
23124;DHT22;11731;48.592;8.858;2022-09-01T09:00:00;22.20;99.90
23124;DHT22;11731;48.592;8.858;2022-09-01T09:02:38;22.30;99.90
23124;DHT22;11731;48.592;8.858;2022-09-01T09:05:25;22.40;99.90
23124;DHT22;11731;48.592;8.858;2022-09-01T09:08:06;22.20;99.90
23124;DHT22;11731;48.592;8.858;2022-09-01T09:10:42;22.30;99.90
23124;DHT22;11731;48.592;8.858;2022-09-01T09:13:21;22.40;99.10
23124;DHT22;11731;48.592;8.858;2022-09-01T09:15:52;22.50;99.50
23124;DHT22;11731;48.592;8.858;2022-09-01T09:18:39;22.30;99.40
23124;DHT22;11731;48.592;8.858;2022-09-01T09:21:13;22.40;99.70
23124;DHT22;11731;48.592;8.858;2022-09-01T09:23:46;22.70;99.60
23124;DHT22;11731;48.592;8.858;2022-09-01T09:26:13;22.70;99.90
23124;DHT22;11731;48.592;8.858;2022-09-01T09:28:44;22.80;98.70
23124;DHT22;11731;48.592;8.858;2022-09-01T09:31:30;22.80;99.30
23124;DHT22;11731;48.592;8.858;2022-09-01T09:34:00;22.80;99.30
23124;DHT22;11731;48.592;8.858;2022-09-01T09:36:33;22.70;99.40
23124;DHT22;11731;48.592;8.858;2022-09-01T09:39:06;22.90;99.10
23124;DHT22;11731;48.592;8.858;2022-09-01T09:41:33;22.80;98.70
23124;DHT22;11731;48.592;8.858;2022-09-01T09:44:04;22.60;99.20
23124;DHT22;11731;48.592;8.858;2022-09-01T09:46:37;22.30;99.30
23124;DHT22;11731;48.592;8.858;2022-09-01T09:49:12;22.50;99.20
23124;DHT22;11731;48.592;8.858;2022-09-01T09:51:43;22.60;98.60
23124;DHT22;11731;48.592;8.858;2022-09-01T09:54:16;22.90;98.50
23124;DHT22;11731;48.592;8.858;2022-09-01T09:56:44;23.20;98.30
23124;DHT22;11731;48.592;8.858;2022-09-01T09:59:22;23.20;98.00
23124;DHT22;11731;48.592;8.858;2022-09-01T10:01:49;23.20;98.40
23124;DHT22;11731;48.592;8.858;2022-09-01T10:04:35;23.30;98.30
23124;DHT22;11731;48.592;8.858;2022-09-01T10:07:22;23.30;97.90
23124;DHT22;11731;48.592;8.858;2022-09-01T10:09:51;23.40;97.10
23124;DHT22;11731;48.592;8.858;2022-09-01T10:12:18;23.60;97.60
23124;DHT22;11731;48.592;8.858;2022-09-01T10:14:49;23.30;98.10
23124;DHT22;11731;48.592;8.858;2022-09-01T10:17:22;23.40;97.60
23124;DHT22;11731;48.592;8.858;2022-09-01T10:19:56;23.30;97.90
23124;DHT22;11731;48.592;8.858;2022-09-01T10:22:24;23.40;98.00
23124;DHT22;11731;48.592;8.858;2022-09-01T10:24:51;23.30;97.60
23124;DHT22;11731;48.592;8.858;2022-09-01T10:27:21;23.40;97.10
23124;DHT22;11731;48.592;8.858;2022-09-01T10:29:53;23.80;96.70
23124;DHT22;11731;48.592;8.858;2022-09-01T10:32:25;23.50;96.90
23124;DHT22;11731;48.592;8.858;2022-09-01T10:34:56;23.50;97.20
23124;DHT22;11731;48.592;8.858;2022-09-01T10:37:23;23.60;96.40
23124;DHT22;11731;48.592;8.858;2022-09-01T10:40:13;23.50;96.60
23124;DHT22;11731;48.592;8.858;2022-09-01T10:42:42;23.50;96.60
23124;DHT22;11731;48.592;8.858;2022-09-01T10:45:18;23.30;96.80
23124;DHT22;11731;48.592;8.858;2022-09-01T10:47:47;23.60;96.00
23124;DHT22;11731;48.592;8.858;2022-09-01T10:50:28;23.60;96.70
23124;DHT22;11731;48.592;8.858;2022-09-01T10:53:02;23.70;96.40
23124;DHT22;11731;48.592;8.858;2022-09-01T10:55:42;23.40;96.40
23124;DHT22;11731;48.592;8.858;2022-09-01T11:01:10;23.50;96.70
23124;DHT22;11731;48.592;8.858;2022-09-01T11:06:57;23.40;95.80
23124;DHT22;11731;48.592;8.858;2022-09-01T11:09:29;23.50;96.40
23124;DHT22;11731;48.592;8.858;2022-09-01T11:12:23;23.70;96.20
23124;DHT22;11731;48.592;8.858;2022-09-01T11:14:53;23.50;95.90
23124;DHT22;11731;48.592;8.858;2022-09-01T11:17:22;23.60;96.20
23124;DHT22;11731;48.592;8.858;2022-09-01T11:20:05;23.80;95.80
23124;DHT22;11731;48.592;8.858;2022-09-01T11:22:37;23.50;96.00
23124;DHT22;11731;48.592;8.858;2022-09-01T11:25:37;23.70;96.10
23124;DHT22;11731;48.592;8.858;2022-09-01T11:28:10;23.70;95.00
23124;DHT22;11731;48.592;8.858;2022-09-01T11:30:58;23.70;95.30
23124;DHT22;11731;48.592;8.858;2022-09-01T11:33:33;23.90;94.90
23124;DHT22;11731;48.592;8.858;2022-09-01T11:36:06;23.90;95.20
23124;DHT22;11731;48.592;8.858;2022-09-01T11:38:46;23.80;95.30
23124;DHT22;11731;48.592;8.858;2022-09-01T11:41:21;24.00;94.60
23124;DHT22;11731;48.592;8.858;2022-09-01T11:43:51;24.00;95.20
23124;DHT22;11731;48.592;8.858;2022-09-01T11:46:23;24.20;94.10
23124;DHT22;11731;48.592;8.858;2022-09-01T11:48:51;24.00;94.10
23124;DHT22;11731;48.592;8.858;2022-09-01T11:51:18;24.20;93.80
23124;DHT22;11731;48.592;8.858;2022-09-01T11:53:48;24.60;93.40
23124;DHT22;11731;48.592;8.858;2022-09-01T11:56:18;24.70;93.20
23124;DHT22;11731;48.592;8.858;2022-09-01T11:58:47;24.80;93.50
23124;DHT22;11731;48.592;8.858;2022-09-01T12:01:18;24.70;93.40
23124;DHT22;11731;48.592;8.858;2022-09-01T12:03:45;24.90;93.20
23124;DHT22;11731;48.592;8.858;2022-09-01T12:06:18;24.90;93.30
23124;DHT22;11731;48.592;8.858;2022-09-01T12:08:54;25.10;92.90
23124;DHT22;11731;48.592;8.858;2022-09-01T12:11:24;25.50;92.20
23124;DHT22;11731;48.592;8.858;2022-09-01T12:13:57;25.50;92.10
23124;DHT22;11731;48.592;8.858;2022-09-01T12:16:24;25.20;92.30
23124;DHT22;11731;48.592;8.858;2022-09-01T12:18:53;25.20;92.60
23124;DHT22;11731;48.592;8.858;2022-09-01T12:21:23;25.10;92.50
23124;DHT22;11731;48.592;8.858;2022-09-01T12:23:52;25.10;92.50
23124;DHT22;11731;48.592;8.858;2022-09-01T12:26:23;25.10;92.60
23124;DHT22;11731;48.592;8.858;2022-09-01T12:28:51;25.10;92.40
23124;DHT22;11731;48.592;8.858;2022-09-01T12:31:22;24.90;92.60
23124;DHT22;11731;48.592;8.858;2022-09-01T12:33:50;24.90;92.70
23124;DHT22;11731;48.592;8.858;2022-09-01T12:36:23;25.00;92.00
23124;DHT22;11731;48.592;8.858;2022-09-01T12:38:52;25.10;92.20
23124;DHT22;11731;48.592;8.858;2022-09-01T12:41:32;25.00;92.00
23124;DHT22;11731;48.592;8.858;2022-09-01T12:44:25;24.90;92.00
23124;DHT22;11731;48.592;8.858;2022-09-01T12:46:52;24.80;91.80
23124;DHT22;11731;48.592;8.858;2022-09-01T12:49:23;24.90;91.80
23124;DHT22;11731;48.592;8.858;2022-09-01T12:52:05;24.90;91.70
23124;DHT22;11731;48.592;8.858;2022-09-01T12:54:36;24.90;91.40
23124;DHT22;11731;48.592;8.858;2022-09-01T12:57:04;24.80;91.80
23124;DHT22;11731;48.592;8.858;2022-09-01T12:59:32;25.10;91.40
23124;DHT22;11731;48.592;8.858;2022-09-01T13:02:26;25.30;90.30
23124;DHT22;11731;48.592;8.858;2022-09-01T13:04:53;25.10;90.70
23124;DHT22;11731;48.592;8.858;2022-09-01T13:07:19;25.20;90.70
23124;DHT22;11731;48.592;8.858;2022-09-01T13:09:48;25.70;90.80
23124;DHT22;11731;48.592;8.858;2022-09-01T13:12:17;25.50;91.40
23124;DHT22;11731;48.592;8.858;2022-09-01T13:14:44;25.60;90.50
23124;DHT22;11731;48.592;8.858;2022-09-01T13:17:11;25.90;89.00
23124;DHT22;11731;48.592;8.858;2022-09-01T13:19:38;25.80;88.10
23124;DHT22;11731;48.592;8.858;2022-09-01T13:22:05;25.70;88.10
23124;DHT22;11731;48.592;8.858;2022-09-01T13:24:32;25.40;89.70
23124;DHT22;11731;48.592;8.858;2022-09-01T13:27:00;25.80;88.20
23124;DHT22;11731;48.592;8.858;2022-09-01T13:29:27;26.20;87.60
23124;DHT22;11731;48.592;8.858;2022-09-01T13:31:54;26.20;84.90
23124;DHT22;11731;48.592;8.858;2022-09-01T13:34:21;25.80;88.00
23124;DHT22;11731;48.592;8.858;2022-09-01T13:36:48;26.10;87.30
23124;DHT22;11731;48.592;8.858;2022-09-01T13:39:15;26.40;86.60
23124;DHT22;11731;48.592;8.858;2022-09-01T13:41:42;26.60;84.90
23124;DHT22;11731;48.592;8.858;2022-09-01T13:44:10;26.50;84.70
23124;DHT22;11731;48.592;8.858;2022-09-01T13:46:37;26.60;86.80
23124;DHT22;11731;48.592;8.858;2022-09-01T13:49:05;26.90;85.00
23124;DHT22;11731;48.592;8.858;2022-09-01T13:51:32;27.30;83.40
23124;DHT22;11731;48.592;8.858;2022-09-01T13:54:02;27.40;82.80
23124;DHT22;11731;48.592;8.858;2022-09-01T13:56:29;27.60;83.20
23124;DHT22;11731;48.592;8.858;2022-09-01T13:58:55;27.90;81.80
23124;DHT22;11731;48.592;8.858;2022-09-01T14:01:24;27.90;81.20
23124;DHT22;11731;48.592;8.858;2022-09-01T14:03:51;28.00;81.70
23124;DHT22;11731;48.592;8.858;2022-09-01T14:06:17;28.00;82.30
23124;DHT22;11731;48.592;8.858;2022-09-01T14:08:45;27.40;84.70
23124;DHT22;11731;48.592;8.858;2022-09-01T14:11:16;27.00;84.80
23124;DHT22;11731;48.592;8.858;2022-09-01T14:13:44;26.80;86.20
23124;DHT22;11731;48.592;8.858;2022-09-01T14:16:12;26.40;87.00
23124;DHT22;11731;48.592;8.858;2022-09-01T14:18:41;26.00;87.80
23124;DHT22;11731;48.592;8.858;2022-09-01T14:21:10;25.80;88.80
23124;DHT22;11731;48.592;8.858;2022-09-01T14:23:38;25.80;89.50
23124;DHT22;11731;48.592;8.858;2022-09-01T14:26:08;25.80;89.60
23124;DHT22;11731;48.592;8.858;2022-09-01T14:28:36;26.10;89.50
23124;DHT22;11731;48.592;8.858;2022-09-01T14:31:07;26.10;88.10
23124;DHT22;11731;48.592;8.858;2022-09-01T14:33:34;26.20;88.00
23124;DHT22;11731;48.592;8.858;2022-09-01T14:36:03;26.10;89.20
23124;DHT22;11731;48.592;8.858;2022-09-01T14:38:31;26.20;88.20
23124;DHT22;11731;48.592;8.858;2022-09-01T14:40:59;26.20;88.60
23124;DHT22;11731;48.592;8.858;2022-09-01T14:43:27;26.00;89.50
23124;DHT22;11731;48.592;8.858;2022-09-01T14:46:02;26.10;89.00
23124;DHT22;11731;48.592;8.858;2022-09-01T14:48:31;26.10;89.00
23124;DHT22;11731;48.592;8.858;2022-09-01T14:50:58;26.30;87.20
23124;DHT22;11731;48.592;8.858;2022-09-01T14:53:28;26.20;86.70
23124;DHT22;11731;48.592;8.858;2022-09-01T14:55:55;26.20;86.80
23124;DHT22;11731;48.592;8.858;2022-09-01T14:58:23;26.30;86.70
23124;DHT22;11731;48.592;8.858;2022-09-01T15:00:51;26.30;87.50
23124;DHT22;11731;48.592;8.858;2022-09-01T15:03:20;26.30;85.80
23124;DHT22;11731;48.592;8.858;2022-09-01T15:05:47;26.20;85.60
23124;DHT22;11731;48.592;8.858;2022-09-01T15:08:15;26.60;85.90
23124;DHT22;11731;48.592;8.858;2022-09-01T15:10:44;26.80;85.50
23124;DHT22;11731;48.592;8.858;2022-09-01T15:13:11;26.70;86.30
23124;DHT22;11731;48.592;8.858;2022-09-01T15:15:38;26.50;86.40
23124;DHT22;11731;48.592;8.858;2022-09-01T15:18:05;26.70;86.10
23124;DHT22;11731;48.592;8.858;2022-09-01T15:20:32;27.20;84.40
23124;DHT22;11731;48.592;8.858;2022-09-01T15:23:11;27.00;84.30
23124;DHT22;11731;48.592;8.858;2022-09-01T15:25:39;26.60;85.80
23124;DHT22;11731;48.592;8.858;2022-09-01T15:28:07;26.60;85.20
23124;DHT22;11731;48.592;8.858;2022-09-01T15:30:35;26.70;85.30
23124;DHT22;11731;48.592;8.858;2022-09-01T15:33:04;26.50;86.60
23124;DHT22;11731;48.592;8.858;2022-09-01T15:35:31;26.20;87.40
23124;DHT22;11731;48.592;8.858;2022-09-01T15:37:58;25.90;88.80
23124;DHT22;11731;48.592;8.858;2022-09-01T15:40:26;25.80;89.30
23124;DHT22;11731;48.592;8.858;2022-09-01T15:42:54;26.10;89.20
23124;DHT22;11731;48.592;8.858;2022-09-01T15:45:24;26.20;89.10
23124;DHT22;11731;48.592;8.858;2022-09-01T15:47:52;25.90;89.40
23124;DHT22;11731;48.592;8.858;2022-09-01T15:50:21;26.00;89.50
23124;DHT22;11731;48.592;8.858;2022-09-01T15:52:51;25.80;89.90
23124;DHT22;11731;48.592;8.858;2022-09-01T15:55:19;25.70;90.10